Accueil
METAR-TAF:

METAR-TAF

Aéroports :

Benson, Angleterre

latitude: 51-37N, longitude: 001-05W, altitude: 63 m

Observation

Le bulletin a été fait il y a 52 minutes, à 16:50 UTC
Vent 8 kt de ouest/nord-ouest
Température 12°C
Humidité 47%
Pression 1029 hPa
Visibilité 10 km ou plus

METAR: EGUB 241650Z AUTO 30008KT 9999 // FEW050/// 12/01 Q1029

Heure: 17:42 (17:42 UTC)


TAF: absent

Observations et prévisions météorologiques de plus de 4000 aéroports (messages METAR et TAF).

Les stations disponibles sont représentées par des disques jaunes et rouges sur la carte.

Passer la souris dessus pour voir le nom de la station.

Cliquer dessus pour voir les observations et prévisions météorologiques.

Pour changer de carte: cliquez sur les boutons verts avec une croix noire pour zoomer, sur le bouton vert avec un tiret pour effectuer un zoom arrière, ou sur les flèches vertes pour les cartes adjacentes.


METAR-TAF: